sensor_id;sensor_type;location;lat;lon;timestamp;P1;durP1;ratioP1;P2;durP2;ratioP2
43706;SDS011;61348;53.392;-6.248;2023-01-10T00:00:27;16.10;;;2.92;;
43706;SDS011;61348;53.392;-6.248;2023-01-10T00:03:01;23.30;;;3.88;;
43706;SDS011;61348;53.392;-6.248;2023-01-10T00:08:00;21.48;;;5.05;;
43706;SDS011;61348;53.392;-6.248;2023-01-10T00:10:29;11.75;;;3.25;;
43706;SDS011;61348;53.392;-6.248;2023-01-10T00:12:57;21.40;;;4.18;;
43706;SDS011;61348;53.392;-6.248;2023-01-10T00:15:43;17.98;;;2.95;;
43706;SDS011;61348;53.392;-6.248;2023-01-10T00:18:10;15.50;;;2.80;;
43706;SDS011;61348;53.392;-6.248;2023-01-10T00:20:37;20.48;;;5.05;;
43706;SDS011;61348;53.392;-6.248;2023-01-10T00:23:03;17.75;;;3.97;;
43706;SDS011;61348;53.392;-6.248;2023-01-10T00:25:30;15.68;;;3.10;;
43706;SDS011;61348;53.392;-6.248;2023-01-10T00:27:59;11.00;;;2.75;;
43706;SDS011;61348;53.392;-6.248;2023-01-10T00:30:48;7.68;;;2.47;;
43706;SDS011;61348;53.392;-6.248;2023-01-10T00:33:26;15.98;;;3.47;;
43706;SDS011;61348;53.392;-6.248;2023-01-10T00:35:55;13.80;;;4.20;;
43706;SDS011;61348;53.392;-6.248;2023-01-10T00:38:22;9.18;;;2.03;;
43706;SDS011;61348;53.392;-6.248;2023-01-10T00:40:49;8.85;;;2.45;;
43706;SDS011;61348;53.392;-6.248;2023-01-10T00:43:15;17.10;;;2.63;;
43706;SDS011;61348;53.392;-6.248;2023-01-10T00:46:01;15.20;;;2.78;;
43706;SDS011;61348;53.392;-6.248;2023-01-10T00:48:30;20.52;;;4.68;;
43706;SDS011;61348;53.392;-6.248;2023-01-10T00:50:57;13.30;;;3.08;;
43706;SDS011;61348;53.392;-6.248;2023-01-10T00:53:23;12.95;;;3.83;;
43706;SDS011;61348;53.392;-6.248;2023-01-10T00:55:50;12.35;;;3.03;;
43706;SDS011;61348;53.392;-6.248;2023-01-10T00:58:18;14.20;;;2.65;;
43706;SDS011;61348;53.392;-6.248;2023-01-10T01:00:46;12.00;;;2.42;;
43706;SDS011;61348;53.392;-6.248;2023-01-10T01:03:17;11.00;;;2.75;;
43706;SDS011;61348;53.392;-6.248;2023-01-10T01:05:45;19.40;;;3.65;;
43706;SDS011;61348;53.392;-6.248;2023-01-10T01:08:14;12.10;;;3.28;;
43706;SDS011;61348;53.392;-6.248;2023-01-10T01:10:42;8.00;;;3.17;;
43706;SDS011;61348;53.392;-6.248;2023-01-10T01:13:10;10.70;;;3.03;;
43706;SDS011;61348;53.392;-6.248;2023-01-10T01:15:39;12.10;;;3.40;;
43706;SDS011;61348;53.392;-6.248;2023-01-10T01:18:06;13.68;;;3.67;;
43706;SDS011;61348;53.392;-6.248;2023-01-10T01:20:34;13.30;;;3.33;;
43706;SDS011;61348;53.392;-6.248;2023-01-10T01:23:00;18.02;;;4.03;;
43706;SDS011;61348;53.392;-6.248;2023-01-10T01:25:27;23.77;;;3.78;;
43706;SDS011;61348;53.392;-6.248;2023-01-10T01:27:54;26.83;;;6.13;;
43706;SDS011;61348;53.392;-6.248;2023-01-10T01:30:20;10.73;;;3.13;;
43706;SDS011;61348;53.392;-6.248;2023-01-10T01:32:47;14.00;;;4.20;;
43706;SDS011;61348;53.392;-6.248;2023-01-10T01:35:15;13.90;;;3.03;;
43706;SDS011;61348;53.392;-6.248;2023-01-10T01:37:42;18.88;;;2.88;;
43706;SDS011;61348;53.392;-6.248;2023-01-10T01:40:16;12.07;;;2.85;;
43706;SDS011;61348;53.392;-6.248;2023-01-10T01:42:44;10.48;;;3.80;;
43706;SDS011;61348;53.392;-6.248;2023-01-10T01:47:52;23.40;;;4.28;;
43706;SDS011;61348;53.392;-6.248;2023-01-10T01:50:24;18.13;;;3.63;;
43706;SDS011;61348;53.392;-6.248;2023-01-10T01:52:55;16.38;;;3.35;;
43706;SDS011;61348;53.392;-6.248;2023-01-10T01:55:27;17.23;;;3.33;;
43706;SDS011;61348;53.392;-6.248;2023-01-10T01:57:59;23.93;;;3.10;;
43706;SDS011;61348;53.392;-6.248;2023-01-10T02:00:29;15.57;;;3.38;;
43706;SDS011;61348;53.392;-6.248;2023-01-10T02:02:56;21.77;;;4.05;;
43706;SDS011;61348;53.392;-6.248;2023-01-10T02:05:28;19.30;;;4.70;;
43706;SDS011;61348;53.392;-6.248;2023-01-10T02:07:58;24.67;;;4.40;;
43706;SDS011;61348;53.392;-6.248;2023-01-10T02:13:18;12.80;;;2.60;;
43706;SDS011;61348;53.392;-6.248;2023-01-10T02:15:48;14.57;;;3.50;;
43706;SDS011;61348;53.392;-6.248;2023-01-10T02:18:15;21.33;;;3.60;;
43706;SDS011;61348;53.392;-6.248;2023-01-10T02:28:48;18.15;;;2.85;;
43706;SDS011;61348;53.392;-6.248;2023-01-10T02:34:27;11.38;;;2.28;;
43706;SDS011;61348;53.392;-6.248;2023-01-10T02:40:03;9.38;;;1.77;;
43706;SDS011;61348;53.392;-6.248;2023-01-10T02:48:13;10.77;;;2.83;;
43706;SDS011;61348;53.392;-6.248;2023-01-10T02:53:14;9.63;;;1.80;;
43706;SDS011;61348;53.392;-6.248;2023-01-10T03:07:13;21.90;;;3.25;;
43706;SDS011;61348;53.392;-6.248;2023-01-10T03:12:38;10.55;;;2.13;;
43706;SDS011;61348;53.392;-6.248;2023-01-10T03:15:12;15.63;;;2.28;;
43706;SDS011;61348;53.392;-6.248;2023-01-10T03:17:44;13.45;;;2.08;;
43706;SDS011;61348;53.392;-6.248;2023-01-10T03:20:16;12.88;;;1.52;;
43706;SDS011;61348;53.392;-6.248;2023-01-10T03:22:46;9.13;;;1.60;;
43706;SDS011;61348;53.392;-6.248;2023-01-10T03:25:13;17.52;;;3.40;;
43706;SDS011;61348;53.392;-6.248;2023-01-10T03:28:03;6.93;;;1.38;;
43706;SDS011;61348;53.392;-6.248;2023-01-10T03:30:38;8.48;;;1.80;;
43706;SDS011;61348;53.392;-6.248;2023-01-10T03:33:27;12.13;;;1.30;;
43706;SDS011;61348;53.392;-6.248;2023-01-10T03:41:23;8.23;;;1.10;;
43706;SDS011;61348;53.392;-6.248;2023-01-10T03:49:49;5.60;;;1.83;;
43706;SDS011;61348;53.392;-6.248;2023-01-10T03:52:21;4.40;;;2.30;;
43706;SDS011;61348;53.392;-6.248;2023-01-10T03:54:49;7.90;;;1.42;;
43706;SDS011;61348;53.392;-6.248;2023-01-10T03:57:22;7.20;;;1.58;;
43706;SDS011;61348;53.392;-6.248;2023-01-10T03:59:53;10.05;;;1.42;;
43706;SDS011;61348;53.392;-6.248;2023-01-10T04:02:29;7.50;;;1.30;;
43706;SDS011;61348;53.392;-6.248;2023-01-10T04:04:57;6.70;;;1.08;;
43706;SDS011;61348;53.392;-6.248;2023-01-10T04:07:24;7.47;;;0.98;;
43706;SDS011;61348;53.392;-6.248;2023-01-10T04:09:52;5.60;;;1.08;;
43706;SDS011;61348;53.392;-6.248;2023-01-10T04:12:19;3.83;;;0.63;;
43706;SDS011;61348;53.392;-6.248;2023-01-10T04:14:46;3.65;;;0.75;;
43706;SDS011;61348;53.392;-6.248;2023-01-10T04:17:13;2.75;;;0.63;;
43706;SDS011;61348;53.392;-6.248;2023-01-10T04:19:41;5.70;;;2.15;;
43706;SDS011;61348;53.392;-6.248;2023-01-10T04:22:09;5.22;;;0.43;;
43706;SDS011;61348;53.392;-6.248;2023-01-10T04:24:37;2.45;;;0.35;;
43706;SDS011;61348;53.392;-6.248;2023-01-10T04:27:04;3.35;;;0.20;;
43706;SDS011;61348;53.392;-6.248;2023-01-10T04:29:30;7.10;;;0.50;;
43706;SDS011;61348;53.392;-6.248;2023-01-10T04:31:57;1.17;;;0.20;;
43706;SDS011;61348;53.392;-6.248;2023-01-10T04:34:24;2.10;;;0.90;;
43706;SDS011;61348;53.392;-6.248;2023-01-10T04:36:51;2.03;;;0.20;;
43706;SDS011;61348;53.392;-6.248;2023-01-10T04:39:17;0.90;;;0.30;;
43706;SDS011;61348;53.392;-6.248;2023-01-10T04:41:44;4.57;;;0.32;;
43706;SDS011;61348;53.392;-6.248;2023-01-10T04:44:11;0.47;;;0.20;;
43706;SDS011;61348;53.392;-6.248;2023-01-10T04:46:38;1.40;;;0.30;;
43706;SDS011;61348;53.392;-6.248;2023-01-10T04:49:04;0.77;;;0.20;;
43706;SDS011;61348;53.392;-6.248;2023-01-10T04:51:32;0.95;;;0.30;;
43706;SDS011;61348;53.392;-6.248;2023-01-10T04:53:59;1.27;;;0.22;;
43706;SDS011;61348;53.392;-6.248;2023-01-10T04:56:26;1.20;;;0.40;;
43706;SDS011;61348;53.392;-6.248;2023-01-10T04:58:52;0.55;;;0.20;;
43706;SDS011;61348;53.392;-6.248;2023-01-10T05:01:20;1.35;;;0.10;;
43706;SDS011;61348;53.392;-6.248;2023-01-10T05:03:50;0.85;;;0.10;;
43706;SDS011;61348;53.392;-6.248;2023-01-10T05:06:19;1.13;;;0.10;;
43706;SDS011;61348;53.392;-6.248;2023-01-10T05:08:47;0.10;;;0.10;;
43706;SDS011;61348;53.392;-6.248;2023-01-10T05:11:14;1.25;;;0.08;;
43706;SDS011;61348;53.392;-6.248;2023-01-10T05:13:40;0.20;;;0.10;;
43706;SDS011;61348;53.392;-6.248;2023-01-10T05:16:07;0.43;;;0.20;;
43706;SDS011;61348;53.392;-6.248;2023-01-10T05:18:34;3.63;;;0.20;;
43706;SDS011;61348;53.392;-6.248;2023-01-10T05:21:02;2.10;;;0.13;;
43706;SDS011;61348;53.392;-6.248;2023-01-10T05:23:31;0.85;;;0.15;;
43706;SDS011;61348;53.392;-6.248;2023-01-10T05:26:04;0.60;;;0.30;;
43706;SDS011;61348;53.392;-6.248;2023-01-10T05:28:44;0.10;;;0.10;;
43706;SDS011;61348;53.392;-6.248;2023-01-10T05:31:12;0.00;;;0.00;;
43706;SDS011;61348;53.392;-6.248;2023-01-10T05:33:48;0.93;;;0.10;;
43706;SDS011;61348;53.392;-6.248;2023-01-10T05:36:16;0.17;;;0.03;;
43706;SDS011;61348;53.392;-6.248;2023-01-10T05:38:44;0.85;;;0.10;;
43706;SDS011;61348;53.392;-6.248;2023-01-10T05:41:11;0.10;;;0.10;;
43706;SDS011;61348;53.392;-6.248;2023-01-10T05:43:38;0.10;;;0.00;;
43706;SDS011;61348;53.392;-6.248;2023-01-10T05:46:05;0.57;;;0.10;;
43706;SDS011;61348;53.392;-6.248;2023-01-10T05:48:32;0.13;;;0.00;;
43706;SDS011;61348;53.392;-6.248;2023-01-10T05:50:59;0.20;;;0.00;;
43706;SDS011;61348;53.392;-6.248;2023-01-10T05:53:25;0.55;;;0.00;;
43706;SDS011;61348;53.392;-6.248;2023-01-10T05:55:53;0.00;;;0.00;;
43706;SDS011;61348;53.392;-6.248;2023-01-10T05:58:25;1.65;;;0.10;;
43706;SDS011;61348;53.392;-6.248;2023-01-10T06:00:53;1.35;;;0.00;;
43706;SDS011;61348;53.392;-6.248;2023-01-10T06:03:21;0.43;;;0.10;;
43706;SDS011;61348;53.392;-6.248;2023-01-10T06:05:48;0.10;;;0.05;;
43706;SDS011;61348;53.392;-6.248;2023-01-10T06:08:15;3.10;;;0.22;;
43706;SDS011;61348;53.392;-6.248;2023-01-10T06:10:42;0.70;;;0.10;;
43706;SDS011;61348;53.392;-6.248;2023-01-10T06:13:09;0.10;;;0.00;;
43706;SDS011;61348;53.392;-6.248;2023-01-10T06:15:37;2.95;;;0.10;;
43706;SDS011;61348;53.392;-6.248;2023-01-10T06:18:05;0.70;;;0.17;;
43706;SDS011;61348;53.392;-6.248;2023-01-10T06:20:32;2.60;;;0.22;;
43706;SDS011;61348;53.392;-6.248;2023-01-10T06:22:58;0.22;;;0.10;;
43706;SDS011;61348;53.392;-6.248;2023-01-10T06:25:33;0.90;;;0.30;;
43706;SDS011;61348;53.392;-6.248;2023-01-10T06:28:02;0.63;;;0.35;;
43706;SDS011;61348;53.392;-6.248;2023-01-10T06:30:29;0.25;;;0.10;;
43706;SDS011;61348;53.392;-6.248;2023-01-10T06:32:59;0.20;;;0.10;;
43706;SDS011;61348;53.392;-6.248;2023-01-10T06:35:31;0.20;;;0.20;;
43706;SDS011;61348;53.392;-6.248;2023-01-10T06:37:58;0.30;;;0.10;;
43706;SDS011;61348;53.392;-6.248;2023-01-10T06:40:25;0.32;;;0.20;;
43706;SDS011;61348;53.392;-6.248;2023-01-10T06:42:53;0.65;;;0.65;;
43706;SDS011;61348;53.392;-6.248;2023-01-10T06:45:20;0.30;;;0.10;;
43706;SDS011;61348;53.392;-6.248;2023-01-10T06:47:46;0.63;;;0.32;;
43706;SDS011;61348;53.392;-6.248;2023-01-10T06:50:13;4.75;;;0.40;;
43706;SDS011;61348;53.392;-6.248;2023-01-10T06:52:40;1.15;;;0.30;;
43706;SDS011;61348;53.392;-6.248;2023-01-10T06:55:07;0.38;;;0.38;;
43706;SDS011;61348;53.392;-6.248;2023-01-10T06:57:34;2.72;;;0.20;;
43706;SDS011;61348;53.392;-6.248;2023-01-10T07:00:02;0.43;;;0.20;;
43706;SDS011;61348;53.392;-6.248;2023-01-10T07:02:32;0.15;;;0.10;;
43706;SDS011;61348;53.392;-6.248;2023-01-10T07:04:59;1.27;;;0.10;;
43706;SDS011;61348;53.392;-6.248;2023-01-10T07:07:26;1.23;;;0.30;;
43706;SDS011;61348;53.392;-6.248;2023-01-10T07:09:52;1.88;;;0.40;;
43706;SDS011;61348;53.392;-6.248;2023-01-10T07:12:19;0.63;;;0.32;;
43706;SDS011;61348;53.392;-6.248;2023-01-10T07:14:45;2.45;;;0.40;;
43706;SDS011;61348;53.392;-6.248;2023-01-10T07:17:12;0.50;;;0.20;;
43706;SDS011;61348;53.392;-6.248;2023-01-10T07:19:39;0.17;;;0.10;;
43706;SDS011;61348;53.392;-6.248;2023-01-10T07:22:05;0.00;;;0.00;;
43706;SDS011;61348;53.392;-6.248;2023-01-10T07:24:32;0.35;;;0.15;;
43706;SDS011;61348;53.392;-6.248;2023-01-10T07:26:59;0.75;;;0.10;;
43706;SDS011;61348;53.392;-6.248;2023-01-10T07:29:26;0.10;;;0.10;;
43706;SDS011;61348;53.392;-6.248;2023-01-10T07:31:53;0.40;;;0.10;;
43706;SDS011;61348;53.392;-6.248;2023-01-10T07:34:19;0.10;;;0.10;;
43706;SDS011;61348;53.392;-6.248;2023-01-10T07:36:46;1.13;;;0.20;;
43706;SDS011;61348;53.392;-6.248;2023-01-10T07:39:13;0.10;;;0.00;;
43706;SDS011;61348;53.392;-6.248;2023-01-10T07:41:39;0.10;;;0.10;;
43706;SDS011;61348;53.392;-6.248;2023-01-10T07:44:06;0.90;;;0.13;;
43706;SDS011;61348;53.392;-6.248;2023-01-10T07:46:33;0.28;;;0.15;;
43706;SDS011;61348;53.392;-6.248;2023-01-10T07:49:00;0.30;;;0.08;;
43706;SDS011;61348;53.392;-6.248;2023-01-10T07:51:26;0.10;;;0.10;;
43706;SDS011;61348;53.392;-6.248;2023-01-10T07:53:53;0.60;;;0.00;;
43706;SDS011;61348;53.392;-6.248;2023-01-10T07:56:20;0.00;;;0.00;;
43706;SDS011;61348;53.392;-6.248;2023-01-10T07:58:46;0.50;;;0.10;;
43706;SDS011;61348;53.392;-6.248;2023-01-10T08:01:13;0.10;;;0.10;;
43706;SDS011;61348;53.392;-6.248;2023-01-10T08:03:40;2.17;;;0.20;;
43706;SDS011;61348;53.392;-6.248;2023-01-10T08:06:07;0.55;;;0.10;;
43706;SDS011;61348;53.392;-6.248;2023-01-10T08:08:41;0.00;;;0.00;;
43706;SDS011;61348;53.392;-6.248;2023-01-10T08:11:08;0.20;;;0.10;;
43706;SDS011;61348;53.392;-6.248;2023-01-10T08:13:35;0.15;;;0.15;;
43706;SDS011;61348;53.392;-6.248;2023-01-10T08:16:05;0.22;;;0.10;;
43706;SDS011;61348;53.392;-6.248;2023-01-10T08:18:32;1.08;;;0.30;;
43706;SDS011;61348;53.392;-6.248;2023-01-10T08:21:00;1.10;;;0.30;;
43706;SDS011;61348;53.392;-6.248;2023-01-10T08:23:26;0.57;;;0.20;;
43706;SDS011;61348;53.392;-6.248;2023-01-10T08:25:56;1.95;;;0.40;;
43706;SDS011;61348;53.392;-6.248;2023-01-10T08:28:23;0.85;;;0.20;;
43706;SDS011;61348;53.392;-6.248;2023-01-10T08:30:50;0.63;;;0.30;;
43706;SDS011;61348;53.392;-6.248;2023-01-10T08:33:21;0.25;;;0.13;;
43706;SDS011;61348;53.392;-6.248;2023-01-10T08:35:49;0.15;;;0.10;;
43706;SDS011;61348;53.392;-6.248;2023-01-10T08:38:16;1.33;;;0.10;;
43706;SDS011;61348;53.392;-6.248;2023-01-10T08:40:43;0.47;;;0.20;;
43706;SDS011;61348;53.392;-6.248;2023-01-10T08:43:10;0.75;;;0.10;;
43706;SDS011;61348;53.392;-6.248;2023-01-10T08:45:38;0.10;;;0.10;;
43706;SDS011;61348;53.392;-6.248;2023-01-10T08:48:05;0.20;;;0.10;;
43706;SDS011;61348;53.392;-6.248;2023-01-10T08:50:34;1.75;;;0.20;;
43706;SDS011;61348;53.392;-6.248;2023-01-10T08:53:01;1.17;;;0.22;;
43706;SDS011;61348;53.392;-6.248;2023-01-10T08:55:28;0.60;;;0.15;;
43706;SDS011;61348;53.392;-6.248;2023-01-10T08:57:59;1.98;;;0.13;;
43706;SDS011;61348;53.392;-6.248;2023-01-10T09:00:27;1.02;;;0.30;;
43706;SDS011;61348;53.392;-6.248;2023-01-10T09:02:55;3.88;;;1.17;;
43706;SDS011;61348;53.392;-6.248;2023-01-10T09:05:22;0.32;;;0.10;;
43706;SDS011;61348;53.392;-6.248;2023-01-10T09:07:57;2.75;;;0.30;;
43706;SDS011;61348;53.392;-6.248;2023-01-10T09:10:26;0.68;;;0.22;;
43706;SDS011;61348;53.392;-6.248;2023-01-10T09:12:53;1.88;;;0.43;;
43706;SDS011;61348;53.392;-6.248;2023-01-10T09:15:24;2.92;;;0.30;;
43706;SDS011;61348;53.392;-6.248;2023-01-10T09:17:56;1.83;;;0.38;;
43706;SDS011;61348;53.392;-6.248;2023-01-10T09:20:24;0.75;;;0.30;;
43706;SDS011;61348;53.392;-6.248;2023-01-10T09:22:51;1.42;;;0.88;;
43706;SDS011;61348;53.392;-6.248;2023-01-10T09:25:19;1.08;;;0.22;;
43706;SDS011;61348;53.392;-6.248;2023-01-10T09:27:46;0.40;;;0.20;;
43706;SDS011;61348;53.392;-6.248;2023-01-10T09:30:13;2.85;;;0.63;;
43706;SDS011;61348;53.392;-6.248;2023-01-10T09:32:39;0.82;;;0.20;;
43706;SDS011;61348;53.392;-6.248;2023-01-10T09:35:06;0.38;;;0.22;;
43706;SDS011;61348;53.392;-6.248;2023-01-10T09:37:33;0.63;;;0.40;;
43706;SDS011;61348;53.392;-6.248;2023-01-10T09:40:00;0.52;;;0.40;;
43706;SDS011;61348;53.392;-6.248;2023-01-10T09:45:30;0.75;;;0.40;;
43706;SDS011;61348;53.392;-6.248;2023-01-10T09:48:36;0.98;;;0.32;;
43706;SDS011;61348;53.392;-6.248;2023-01-10T09:53:56;3.25;;;0.55;;
43706;SDS011;61348;53.392;-6.248;2023-01-10T09:56:37;2.13;;;0.52;;
43706;SDS011;61348;53.392;-6.248;2023-01-10T09:59:08;2.17;;;0.50;;
43706;SDS011;61348;53.392;-6.248;2023-01-10T10:01:40;3.65;;;0.70;;
43706;SDS011;61348;53.392;-6.248;2023-01-10T10:04:24;2.58;;;0.40;;
43706;SDS011;61348;53.392;-6.248;2023-01-10T10:06:57;2.25;;;0.57;;
43706;SDS011;61348;53.392;-6.248;2023-01-10T10:09:25;1.17;;;0.52;;
43706;SDS011;61348;53.392;-6.248;2023-01-10T10:17:32;0.40;;;0.20;;
43706;SDS011;61348;53.392;-6.248;2023-01-10T10:23:02;1.42;;;0.90;;
43706;SDS011;61348;53.392;-6.248;2023-01-10T10:25:48;2.78;;;0.32;;
43706;SDS011;61348;53.392;-6.248;2023-01-10T10:40:20;1.15;;;0.20;;
43706;SDS011;61348;53.392;-6.248;2023-01-10T10:42:52;0.68;;;0.13;;
43706;SDS011;61348;53.392;-6.248;2023-01-10T10:48:17;3.10;;;0.40;;
43706;SDS011;61348;53.392;-6.248;2023-01-10T10:50:50;1.65;;;0.32;;
43706;SDS011;61348;53.392;-6.248;2023-01-10T10:53:23;0.25;;;0.20;;
43706;SDS011;61348;53.392;-6.248;2023-01-10T10:55:50;2.60;;;0.35;;
43706;SDS011;61348;53.392;-6.248;2023-01-10T10:58:18;1.20;;;0.25;;
43706;SDS011;61348;53.392;-6.248;2023-01-10T11:00:45;3.53;;;0.35;;
43706;SDS011;61348;53.392;-6.248;2023-01-10T11:05:46;0.85;;;0.30;;
43706;SDS011;61348;53.392;-6.248;2023-01-10T11:08:13;1.45;;;0.30;;
43706;SDS011;61348;53.392;-6.248;2023-01-10T11:10:47;0.20;;;0.10;;
43706;SDS011;61348;53.392;-6.248;2023-01-10T11:15:51;0.95;;;0.25;;
43706;SDS011;61348;53.392;-6.248;2023-01-10T11:18:23;1.15;;;0.20;;
43706;SDS011;61348;53.392;-6.248;2023-01-10T11:26:06;1.58;;;0.60;;
43706;SDS011;61348;53.392;-6.248;2023-01-10T11:28:36;2.65;;;0.50;;
43706;SDS011;61348;53.392;-6.248;2023-01-10T11:31:03;3.63;;;0.60;;
43706;SDS011;61348;53.392;-6.248;2023-01-10T11:33:31;2.03;;;0.40;;
43706;SDS011;61348;53.392;-6.248;2023-01-10T11:36:06;1.35;;;0.20;;
43706;SDS011;61348;53.392;-6.248;2023-01-10T11:38:34;3.30;;;0.57;;
43706;SDS011;61348;53.392;-6.248;2023-01-10T11:43:45;1.17;;;0.20;;
43706;SDS011;61348;53.392;-6.248;2023-01-10T11:46:13;0.70;;;0.30;;
43706;SDS011;61348;53.392;-6.248;2023-01-10T11:48:48;0.77;;;0.40;;
43706;SDS011;61348;53.392;-6.248;2023-01-10T11:51:32;2.30;;;0.22;;
43706;SDS011;61348;53.392;-6.248;2023-01-10T11:56:36;1.45;;;0.40;;
43706;SDS011;61348;53.392;-6.248;2023-01-10T11:59:10;0.65;;;0.40;;
43706;SDS011;61348;53.392;-6.248;2023-01-10T12:01:54;2.60;;;0.38;;
43706;SDS011;61348;53.392;-6.248;2023-01-10T12:04:25;2.47;;;0.45;;
43706;SDS011;61348;53.392;-6.248;2023-01-10T12:06:56;0.95;;;0.30;;
43706;SDS011;61348;53.392;-6.248;2023-01-10T12:12:20;4.00;;;0.47;;
43706;SDS011;61348;53.392;-6.248;2023-01-10T12:14:55;1.80;;;0.40;;
43706;SDS011;61348;53.392;-6.248;2023-01-10T12:17:27;2.10;;;0.50;;
43706;SDS011;61348;53.392;-6.248;2023-01-10T12:20:00;0.22;;;0.10;;
43706;SDS011;61348;53.392;-6.248;2023-01-10T12:22:29;1.42;;;0.63;;
43706;SDS011;61348;53.392;-6.248;2023-01-10T12:25:02;2.65;;;0.30;;
43706;SDS011;61348;53.392;-6.248;2023-01-10T12:27:49;1.40;;;0.38;;
43706;SDS011;61348;53.392;-6.248;2023-01-10T12:30:19;2.33;;;0.40;;
43706;SDS011;61348;53.392;-6.248;2023-01-10T12:32:53;3.97;;;0.38;;
43706;SDS011;61348;53.392;-6.248;2023-01-10T12:35:33;1.65;;;0.50;;
43706;SDS011;61348;53.392;-6.248;2023-01-10T12:41:14;2.83;;;0.45;;
43706;SDS011;61348;53.392;-6.248;2023-01-10T12:44:11;1.63;;;0.30;;
43706;SDS011;61348;53.392;-6.248;2023-01-10T12:46:46;4.95;;;0.28;;
43706;SDS011;61348;53.392;-6.248;2023-01-10T12:49:42;3.55;;;0.20;;
43706;SDS011;61348;53.392;-6.248;2023-01-10T12:52:27;3.63;;;0.70;;
43706;SDS011;61348;53.392;-6.248;2023-01-10T12:54:58;5.38;;;0.52;;
43706;SDS011;61348;53.392;-6.248;2023-01-10T12:57:36;0.93;;;0.40;;
43706;SDS011;61348;53.392;-6.248;2023-01-10T13:00:05;3.22;;;0.57;;
43706;SDS011;61348;53.392;-6.248;2023-01-10T13:02:41;2.90;;;0.50;;
43706;SDS011;61348;53.392;-6.248;2023-01-10T13:05:18;6.00;;;0.65;;
43706;SDS011;61348;53.392;-6.248;2023-01-10T13:07:47;1.40;;;0.85;;
43706;SDS011;61348;53.392;-6.248;2023-01-10T13:10:19;2.45;;;0.57;;
43706;SDS011;61348;53.392;-6.248;2023-01-10T13:13:11;1.08;;;0.32;;
43706;SDS011;61348;53.392;-6.248;2023-01-10T13:15:49;3.30;;;0.50;;
43706;SDS011;61348;53.392;-6.248;2023-01-10T13:18:25;2.60;;;0.70;;
43706;SDS011;61348;53.392;-6.248;2023-01-10T13:21:00;2.65;;;0.95;;
43706;SDS011;61348;53.392;-6.248;2023-01-10T13:23:31;4.53;;;0.90;;
43706;SDS011;61348;53.392;-6.248;2023-01-10T13:26:00;1.85;;;0.65;;
43706;SDS011;61348;53.392;-6.248;2023-01-10T13:28:38;2.92;;;0.50;;
43706;SDS011;61348;53.392;-6.248;2023-01-10T13:31:20;2.08;;;0.50;;
43706;SDS011;61348;53.392;-6.248;2023-01-10T13:36:22;3.92;;;0.45;;
43706;SDS011;61348;53.392;-6.248;2023-01-10T13:38:55;1.35;;;0.77;;
43706;SDS011;61348;53.392;-6.248;2023-01-10T13:41:24;1.98;;;0.60;;
43706;SDS011;61348;53.392;-6.248;2023-01-10T14:06:11;3.17;;;0.60;;
43706;SDS011;61348;53.392;-6.248;2023-01-10T14:17:13;2.05;;;0.50;;
43706;SDS011;61348;53.392;-6.248;2023-01-10T14:19:47;2.75;;;1.50;;
43706;SDS011;61348;53.392;-6.248;2023-01-10T14:22:34;2.25;;;0.75;;
43706;SDS011;61348;53.392;-6.248;2023-01-10T14:25:04;3.38;;;0.93;;
43706;SDS011;61348;53.392;-6.248;2023-01-10T14:27:47;2.97;;;0.40;;
43706;SDS011;61348;53.392;-6.248;2023-01-10T14:32:46;2.13;;;1.38;;
43706;SDS011;61348;53.392;-6.248;2023-01-10T14:35:18;1.75;;;0.38;;
43706;SDS011;61348;53.392;-6.248;2023-01-10T14:43:16;0.95;;;0.57;;
43706;SDS011;61348;53.392;-6.248;2023-01-10T14:46:02;1.55;;;0.60;;
43706;SDS011;61348;53.392;-6.248;2023-01-10T14:48:34;2.25;;;0.52;;
43706;SDS011;61348;53.392;-6.248;2023-01-10T14:54:11;2.60;;;0.47;;
43706;SDS011;61348;53.392;-6.248;2023-01-10T14:56:39;1.40;;;0.30;;
43706;SDS011;61348;53.392;-6.248;2023-01-10T14:59:21;1.08;;;0.75;;
43706;SDS011;61348;53.392;-6.248;2023-01-10T15:02:00;1.87;;;0.67;;
43706;SDS011;61348;53.392;-6.248;2023-01-10T15:04:30;2.47;;;0.68;;
43706;SDS011;61348;53.392;-6.248;2023-01-10T15:07:00;1.73;;;0.50;;
43706;SDS011;61348;53.392;-6.248;2023-01-10T15:09:34;1.90;;;0.73;;
43706;SDS011;61348;53.392;-6.248;2023-01-10T15:12:03;0.95;;;0.40;;
43706;SDS011;61348;53.392;-6.248;2023-01-10T15:14:32;1.88;;;0.68;;
43706;SDS011;61348;53.392;-6.248;2023-01-10T15:17:02;1.80;;;0.47;;
43706;SDS011;61348;53.392;-6.248;2023-01-10T15:19:32;1.23;;;0.40;;
43706;SDS011;61348;53.392;-6.248;2023-01-10T15:22:01;1.85;;;0.47;;
43706;SDS011;61348;53.392;-6.248;2023-01-10T15:24:33;5.63;;;0.65;;
43706;SDS011;61348;53.392;-6.248;2023-01-10T15:29:30;0.90;;;0.47;;
43706;SDS011;61348;53.392;-6.248;2023-01-10T15:32:05;2.33;;;0.57;;
43706;SDS011;61348;53.392;-6.248;2023-01-10T15:34:37;3.90;;;0.60;;
43706;SDS011;61348;53.392;-6.248;2023-01-10T15:37:05;3.63;;;0.73;;
43706;SDS011;61348;53.392;-6.248;2023-01-10T15:39:34;1.98;;;0.35;;
43706;SDS011;61348;53.392;-6.248;2023-01-10T15:42:08;3.22;;;0.60;;
43706;SDS011;61348;53.392;-6.248;2023-01-10T15:44:43;2.55;;;0.77;;
43706;SDS011;61348;53.392;-6.248;2023-01-10T15:53:10;2.65;;;0.52;;
43706;SDS011;61348;53.392;-6.248;2023-01-10T15:55:50;1.13;;;0.50;;
43706;SDS011;61348;53.392;-6.248;2023-01-10T15:58:29;2.25;;;0.57;;
43706;SDS011;61348;53.392;-6.248;2023-01-10T16:01:01;1.00;;;0.65;;
43706;SDS011;61348;53.392;-6.248;2023-01-10T16:03:36;0.47;;;0.40;;
43706;SDS011;61348;53.392;-6.248;2023-01-10T16:06:05;1.25;;;0.30;;
43706;SDS011;61348;53.392;-6.248;2023-01-10T16:08:37;0.88;;;0.50;;
43706;SDS011;61348;53.392;-6.248;2023-01-10T16:11:15;2.05;;;1.15;;
43706;SDS011;61348;53.392;-6.248;2023-01-10T16:14:04;3.10;;;0.77;;
43706;SDS011;61348;53.392;-6.248;2023-01-10T16:16:31;1.75;;;0.70;;
43706;SDS011;61348;53.392;-6.248;2023-01-10T16:18:58;2.95;;;1.33;;
43706;SDS011;61348;53.392;-6.248;2023-01-10T16:21:29;3.80;;;1.10;;
43706;SDS011;61348;53.392;-6.248;2023-01-10T16:26:28;1.92;;;1.25;;
43706;SDS011;61348;53.392;-6.248;2023-01-10T16:28:55;3.55;;;1.88;;
43706;SDS011;61348;53.392;-6.248;2023-01-10T16:31:22;5.85;;;2.67;;
43706;SDS011;61348;53.392;-6.248;2023-01-10T16:33:48;2.70;;;1.50;;
43706;SDS011;61348;53.392;-6.248;2023-01-10T16:36:16;3.03;;;1.58;;
43706;SDS011;61348;53.392;-6.248;2023-01-10T16:38:46;2.47;;;1.25;;
43706;SDS011;61348;53.392;-6.248;2023-01-10T16:41:13;1.38;;;1.00;;
43706;SDS011;61348;53.392;-6.248;2023-01-10T16:43:58;1.15;;;0.60;;
43706;SDS011;61348;53.392;-6.248;2023-01-10T16:46:26;1.67;;;0.95;;
43706;SDS011;61348;53.392;-6.248;2023-01-10T16:48:53;1.67;;;1.40;;
43706;SDS011;61348;53.392;-6.248;2023-01-10T16:51:21;1.15;;;1.02;;
43706;SDS011;61348;53.392;-6.248;2023-01-10T16:53:50;1.83;;;0.85;;
43706;SDS011;61348;53.392;-6.248;2023-01-10T16:56:18;1.55;;;1.35;;
43706;SDS011;61348;53.392;-6.248;2023-01-10T16:58:47;1.48;;;0.60;;
43706;SDS011;61348;53.392;-6.248;2023-01-10T17:01:16;0.63;;;0.60;;
43706;SDS011;61348;53.392;-6.248;2023-01-10T17:03:45;1.45;;;0.70;;
43706;SDS011;61348;53.392;-6.248;2023-01-10T17:06:13;2.25;;;1.35;;
43706;SDS011;61348;53.392;-6.248;2023-01-10T17:08:41;2.67;;;1.40;;
43706;SDS011;61348;53.392;-6.248;2023-01-10T17:11:13;3.50;;;1.33;;
43706;SDS011;61348;53.392;-6.248;2023-01-10T17:13:47;1.95;;;1.25;;
43706;SDS011;61348;53.392;-6.248;2023-01-10T17:16:14;2.45;;;1.73;;
43706;SDS011;61348;53.392;-6.248;2023-01-10T17:18:44;1.30;;;0.90;;
43706;SDS011;61348;53.392;-6.248;2023-01-10T17:21:15;3.38;;;1.15;;
43706;SDS011;61348;53.392;-6.248;2023-01-10T17:23:43;3.92;;;1.75;;
43706;SDS011;61348;53.392;-6.248;2023-01-10T17:26:12;5.53;;;2.15;;
43706;SDS011;61348;53.392;-6.248;2023-01-10T17:28:40;4.22;;;2.33;;
43706;SDS011;61348;53.392;-6.248;2023-01-10T17:31:07;4.03;;;1.77;;
43706;SDS011;61348;53.392;-6.248;2023-01-10T17:33:34;4.32;;;1.67;;